sensor_id;sensor_type;location;lat;lon;timestamp;P1;durP1;ratioP1;P2;durP2;ratioP2
20318;SDS011;10317;47.254;11.314;2023-02-28T00:00:22;13.60;;;10.43;;
20318;SDS011;10317;47.254;11.314;2023-02-28T00:02:48;13.90;;;11.13;;
20318;SDS011;10317;47.254;11.314;2023-02-28T00:05:15;13.20;;;10.15;;
20318;SDS011;10317;47.254;11.314;2023-02-28T00:07:42;15.77;;;10.60;;
20318;SDS011;10317;47.254;11.314;2023-02-28T00:10:09;12.68;;;9.88;;
20318;SDS011;10317;47.254;11.314;2023-02-28T00:12:36;13.80;;;10.18;;
20318;SDS011;10317;47.254;11.314;2023-02-28T00:15:06;11.88;;;8.88;;
20318;SDS011;10317;47.254;11.314;2023-02-28T00:17:35;16.48;;;10.18;;
20318;SDS011;10317;47.254;11.314;2023-02-28T00:20:01;14.85;;;10.25;;
20318;SDS011;10317;47.254;11.314;2023-02-28T00:22:43;15.10;;;9.77;;
20318;SDS011;10317;47.254;11.314;2023-02-28T00:25:11;14.63;;;10.13;;
20318;SDS011;10317;47.254;11.314;2023-02-28T00:27:39;11.48;;;10.02;;
20318;SDS011;10317;47.254;11.314;2023-02-28T00:30:10;12.20;;;9.93;;
20318;SDS011;10317;47.254;11.314;2023-02-28T00:32:37;14.63;;;11.00;;
20318;SDS011;10317;47.254;11.314;2023-02-28T00:35:03;14.15;;;9.88;;
20318;SDS011;10317;47.254;11.314;2023-02-28T00:37:30;14.82;;;10.43;;
20318;SDS011;10317;47.254;11.314;2023-02-28T00:39:56;15.10;;;10.90;;
20318;SDS011;10317;47.254;11.314;2023-02-28T00:42:22;16.05;;;10.80;;
20318;SDS011;10317;47.254;11.314;2023-02-28T00:44:48;14.65;;;10.18;;
20318;SDS011;10317;47.254;11.314;2023-02-28T00:47:14;12.52;;;9.93;;
20318;SDS011;10317;47.254;11.314;2023-02-28T00:49:39;14.15;;;9.88;;
20318;SDS011;10317;47.254;11.314;2023-02-28T00:52:05;17.55;;;11.60;;
20318;SDS011;10317;47.254;11.314;2023-02-28T00:54:31;14.80;;;11.40;;
20318;SDS011;10317;47.254;11.314;2023-02-28T00:56:57;16.20;;;11.27;;
20318;SDS011;10317;47.254;11.314;2023-02-28T00:59:23;14.73;;;10.55;;
20318;SDS011;10317;47.254;11.314;2023-02-28T01:01:48;13.68;;;10.57;;
20318;SDS011;10317;47.254;11.314;2023-02-28T01:04:14;12.93;;;10.07;;
20318;SDS011;10317;47.254;11.314;2023-02-28T01:06:40;14.23;;;10.35;;
20318;SDS011;10317;47.254;11.314;2023-02-28T01:09:06;18.02;;;11.13;;
20318;SDS011;10317;47.254;11.314;2023-02-28T01:11:33;14.48;;;10.95;;
20318;SDS011;10317;47.254;11.314;2023-02-28T01:13:59;14.30;;;10.13;;
20318;SDS011;10317;47.254;11.314;2023-02-28T01:16:26;14.35;;;10.93;;
20318;SDS011;10317;47.254;11.314;2023-02-28T01:18:52;14.07;;;11.05;;
20318;SDS011;10317;47.254;11.314;2023-02-28T01:21:18;13.38;;;10.98;;
20318;SDS011;10317;47.254;11.314;2023-02-28T01:23:45;13.32;;;10.63;;
20318;SDS011;10317;47.254;11.314;2023-02-28T01:26:14;16.00;;;11.30;;
20318;SDS011;10317;47.254;11.314;2023-02-28T01:28:41;14.68;;;11.07;;
20318;SDS011;10317;47.254;11.314;2023-02-28T01:31:07;15.52;;;10.98;;
20318;SDS011;10317;47.254;11.314;2023-02-28T01:33:34;13.35;;;10.18;;
20318;SDS011;10317;47.254;11.314;2023-02-28T01:36:00;16.15;;;11.68;;
20318;SDS011;10317;47.254;11.314;2023-02-28T01:38:29;15.57;;;11.43;;
20318;SDS011;10317;47.254;11.314;2023-02-28T01:40:55;13.80;;;10.82;;
20318;SDS011;10317;47.254;11.314;2023-02-28T01:43:25;17.98;;;11.38;;
20318;SDS011;10317;47.254;11.314;2023-02-28T01:45:54;14.75;;;9.60;;
20318;SDS011;10317;47.254;11.314;2023-02-28T01:48:25;13.65;;;10.43;;
20318;SDS011;10317;47.254;11.314;2023-02-28T01:50:54;13.85;;;10.90;;
20318;SDS011;10317;47.254;11.314;2023-02-28T01:53:26;12.88;;;10.35;;
20318;SDS011;10317;47.254;11.314;2023-02-28T01:55:57;15.68;;;11.25;;
20318;SDS011;10317;47.254;11.314;2023-02-28T01:58:23;14.82;;;11.23;;
20318;SDS011;10317;47.254;11.314;2023-02-28T02:00:48;16.92;;;10.85;;
20318;SDS011;10317;47.254;11.314;2023-02-28T02:03:15;15.27;;;10.77;;
20318;SDS011;10317;47.254;11.314;2023-02-28T02:05:44;12.77;;;10.05;;
20318;SDS011;10317;47.254;11.314;2023-02-28T02:08:13;14.50;;;10.70;;
20318;SDS011;10317;47.254;11.314;2023-02-28T02:10:57;12.85;;;9.63;;
20318;SDS011;10317;47.254;11.314;2023-02-28T02:16:23;14.55;;;9.85;;
20318;SDS011;10317;47.254;11.314;2023-02-28T02:22:03;15.85;;;11.07;;
20318;SDS011;10317;47.254;11.314;2023-02-28T02:38:47;14.95;;;10.57;;
20318;SDS011;10317;47.254;11.314;2023-02-28T02:41:18;13.45;;;9.93;;
20318;SDS011;10317;47.254;11.314;2023-02-28T02:44:05;12.70;;;10.18;;
20318;SDS011;10317;47.254;11.314;2023-02-28T02:46:37;14.25;;;10.57;;
20318;SDS011;10317;47.254;11.314;2023-02-28T02:49:09;11.50;;;10.10;;
20318;SDS011;10317;47.254;11.314;2023-02-28T02:51:41;13.48;;;10.07;;
20318;SDS011;10317;47.254;11.314;2023-02-28T02:54:17;14.32;;;10.70;;
20318;SDS011;10317;47.254;11.314;2023-02-28T02:56:53;12.93;;;10.57;;
20318;SDS011;10317;47.254;11.314;2023-02-28T02:59:26;12.60;;;9.25;;
20318;SDS011;10317;47.254;11.314;2023-02-28T03:01:55;12.38;;;9.70;;
20318;SDS011;10317;47.254;11.314;2023-02-28T03:04:24;13.60;;;10.18;;
20318;SDS011;10317;47.254;11.314;2023-02-28T03:06:53;14.45;;;10.68;;
20318;SDS011;10317;47.254;11.314;2023-02-28T03:09:23;10.63;;;9.45;;
20318;SDS011;10317;47.254;11.314;2023-02-28T03:11:50;18.70;;;10.88;;
20318;SDS011;10317;47.254;11.314;2023-02-28T03:19:45;15.45;;;10.75;;
20318;SDS011;10317;47.254;11.314;2023-02-28T03:22:31;17.70;;;11.80;;
20318;SDS011;10317;47.254;11.314;2023-02-28T03:27:39;17.30;;;10.68;;
20318;SDS011;10317;47.254;11.314;2023-02-28T03:30:11;13.45;;;10.43;;
20318;SDS011;10317;47.254;11.314;2023-02-28T03:32:47;14.73;;;10.07;;
20318;SDS011;10317;47.254;11.314;2023-02-28T03:35:26;13.32;;;10.63;;
20318;SDS011;10317;47.254;11.314;2023-02-28T03:40:49;19.40;;;11.27;;
20318;SDS011;10317;47.254;11.314;2023-02-28T03:43:20;11.25;;;10.05;;
20318;SDS011;10317;47.254;11.314;2023-02-28T03:45:50;14.00;;;9.82;;
20318;SDS011;10317;47.254;11.314;2023-02-28T03:48:22;14.02;;;10.45;;
20318;SDS011;10317;47.254;11.314;2023-02-28T03:50:55;15.38;;;10.93;;
20318;SDS011;10317;47.254;11.314;2023-02-28T03:53:34;14.27;;;10.90;;
20318;SDS011;10317;47.254;11.314;2023-02-28T03:56:09;13.98;;;10.38;;
20318;SDS011;10317;47.254;11.314;2023-02-28T04:01:09;21.00;;;11.02;;
20318;SDS011;10317;47.254;11.314;2023-02-28T04:03:36;14.95;;;10.75;;
20318;SDS011;10317;47.254;11.314;2023-02-28T04:06:03;18.77;;;10.63;;
20318;SDS011;10317;47.254;11.314;2023-02-28T04:08:31;13.25;;;10.27;;
20318;SDS011;10317;47.254;11.314;2023-02-28T04:11:00;13.18;;;10.00;;
20318;SDS011;10317;47.254;11.314;2023-02-28T04:13:31;14.70;;;11.13;;
20318;SDS011;10317;47.254;11.314;2023-02-28T04:15:57;13.38;;;10.68;;
20318;SDS011;10317;47.254;11.314;2023-02-28T04:18:23;17.80;;;11.60;;
20318;SDS011;10317;47.254;11.314;2023-02-28T04:20:48;15.25;;;11.13;;
20318;SDS011;10317;47.254;11.314;2023-02-28T04:23:14;14.10;;;10.48;;
20318;SDS011;10317;47.254;11.314;2023-02-28T04:25:39;13.25;;;10.30;;
20318;SDS011;10317;47.254;11.314;2023-02-28T04:28:06;16.38;;;11.30;;
20318;SDS011;10317;47.254;11.314;2023-02-28T04:30:32;14.63;;;9.80;;
20318;SDS011;10317;47.254;11.314;2023-02-28T04:32:57;15.70;;;10.90;;
20318;SDS011;10317;47.254;11.314;2023-02-28T04:35:23;12.10;;;9.20;;
20318;SDS011;10317;47.254;11.314;2023-02-28T04:37:49;13.93;;;10.30;;
20318;SDS011;10317;47.254;11.314;2023-02-28T04:40:15;13.80;;;9.60;;
20318;SDS011;10317;47.254;11.314;2023-02-28T04:42:40;15.32;;;9.98;;
20318;SDS011;10317;47.254;11.314;2023-02-28T04:45:06;14.65;;;10.10;;
20318;SDS011;10317;47.254;11.314;2023-02-28T04:47:35;14.85;;;9.32;;
20318;SDS011;10317;47.254;11.314;2023-02-28T04:50:01;13.75;;;9.93;;
20318;SDS011;10317;47.254;11.314;2023-02-28T04:52:27;13.82;;;10.05;;
20318;SDS011;10317;47.254;11.314;2023-02-28T04:54:53;16.05;;;10.30;;
20318;SDS011;10317;47.254;11.314;2023-02-28T04:57:18;15.52;;;10.13;;
20318;SDS011;10317;47.254;11.314;2023-02-28T04:59:44;12.68;;;9.60;;
20318;SDS011;10317;47.254;11.314;2023-02-28T05:02:09;13.52;;;9.23;;
20318;SDS011;10317;47.254;11.314;2023-02-28T05:04:35;12.45;;;9.60;;
20318;SDS011;10317;47.254;11.314;2023-02-28T05:07:01;15.85;;;9.65;;
20318;SDS011;10317;47.254;11.314;2023-02-28T05:09:28;12.52;;;9.40;;
20318;SDS011;10317;47.254;11.314;2023-02-28T05:11:54;10.02;;;8.30;;
20318;SDS011;10317;47.254;11.314;2023-02-28T05:14:20;11.57;;;8.88;;
20318;SDS011;10317;47.254;11.314;2023-02-28T05:16:45;11.85;;;8.93;;
20318;SDS011;10317;47.254;11.314;2023-02-28T05:19:11;10.35;;;8.68;;
20318;SDS011;10317;47.254;11.314;2023-02-28T05:21:38;12.88;;;8.68;;
20318;SDS011;10317;47.254;11.314;2023-02-28T05:24:14;13.55;;;9.10;;
20318;SDS011;10317;47.254;11.314;2023-02-28T05:26:40;12.20;;;8.95;;
20318;SDS011;10317;47.254;11.314;2023-02-28T05:29:07;14.60;;;8.15;;
20318;SDS011;10317;47.254;11.314;2023-02-28T05:31:34;11.90;;;8.55;;
20318;SDS011;10317;47.254;11.314;2023-02-28T05:34:00;11.57;;;8.95;;
20318;SDS011;10317;47.254;11.314;2023-02-28T05:36:29;10.50;;;8.05;;
20318;SDS011;10317;47.254;11.314;2023-02-28T05:38:55;11.00;;;7.90;;
20318;SDS011;10317;47.254;11.314;2023-02-28T05:41:20;12.80;;;9.00;;
20318;SDS011;10317;47.254;11.314;2023-02-28T05:43:46;11.45;;;8.35;;
20318;SDS011;10317;47.254;11.314;2023-02-28T05:46:13;12.25;;;8.60;;
20318;SDS011;10317;47.254;11.314;2023-02-28T05:48:40;10.38;;;8.82;;
20318;SDS011;10317;47.254;11.314;2023-02-28T05:51:06;14.85;;;9.77;;
20318;SDS011;10317;47.254;11.314;2023-02-28T05:53:33;14.20;;;8.73;;
20318;SDS011;10317;47.254;11.314;2023-02-28T05:55:59;9.02;;;7.93;;
20318;SDS011;10317;47.254;11.314;2023-02-28T05:58:25;11.23;;;8.15;;
20318;SDS011;10317;47.254;11.314;2023-02-28T06:00:55;10.90;;;8.55;;
20318;SDS011;10317;47.254;11.314;2023-02-28T06:03:21;11.93;;;8.13;;
20318;SDS011;10317;47.254;11.314;2023-02-28T06:05:47;12.63;;;8.52;;
20318;SDS011;10317;47.254;11.314;2023-02-28T06:08:13;11.27;;;8.85;;
20318;SDS011;10317;47.254;11.314;2023-02-28T06:10:38;12.70;;;8.43;;
20318;SDS011;10317;47.254;11.314;2023-02-28T06:13:04;9.60;;;7.65;;
20318;SDS011;10317;47.254;11.314;2023-02-28T06:15:30;11.27;;;8.48;;
20318;SDS011;10317;47.254;11.314;2023-02-28T06:17:56;11.48;;;7.88;;
20318;SDS011;10317;47.254;11.314;2023-02-28T06:20:22;11.95;;;8.10;;
20318;SDS011;10317;47.254;11.314;2023-02-28T06:22:49;12.07;;;8.18;;
20318;SDS011;10317;47.254;11.314;2023-02-28T06:25:16;10.13;;;7.63;;
20318;SDS011;10317;47.254;11.314;2023-02-28T06:27:42;13.45;;;7.95;;
20318;SDS011;10317;47.254;11.314;2023-02-28T06:30:09;14.52;;;8.63;;
20318;SDS011;10317;47.254;11.314;2023-02-28T06:32:36;10.93;;;7.97;;
20318;SDS011;10317;47.254;11.314;2023-02-28T06:35:02;11.93;;;8.40;;
20318;SDS011;10317;47.254;11.314;2023-02-28T06:37:28;10.38;;;8.30;;
20318;SDS011;10317;47.254;11.314;2023-02-28T06:39:55;11.65;;;7.70;;
20318;SDS011;10317;47.254;11.314;2023-02-28T06:42:21;10.55;;;8.18;;
20318;SDS011;10317;47.254;11.314;2023-02-28T06:44:50;14.10;;;9.10;;
20318;SDS011;10317;47.254;11.314;2023-02-28T06:47:16;9.32;;;7.93;;
20318;SDS011;10317;47.254;11.314;2023-02-28T06:49:42;11.45;;;8.02;;
20318;SDS011;10317;47.254;11.314;2023-02-28T06:52:10;11.40;;;7.80;;
20318;SDS011;10317;47.254;11.314;2023-02-28T06:54:36;10.95;;;8.10;;
20318;SDS011;10317;47.254;11.314;2023-02-28T06:57:02;11.43;;;8.13;;
20318;SDS011;10317;47.254;11.314;2023-02-28T06:59:28;12.80;;;8.38;;
20318;SDS011;10317;47.254;11.314;2023-02-28T07:01:53;12.90;;;8.02;;
20318;SDS011;10317;47.254;11.314;2023-02-28T07:04:20;11.05;;;7.55;;
20318;SDS011;10317;47.254;11.314;2023-02-28T07:06:46;9.52;;;7.88;;
20318;SDS011;10317;47.254;11.314;2023-02-28T07:09:12;11.60;;;8.00;;
20318;SDS011;10317;47.254;11.314;2023-02-28T07:11:39;12.27;;;8.85;;
20318;SDS011;10317;47.254;11.314;2023-02-28T07:14:05;10.30;;;7.93;;
20318;SDS011;10317;47.254;11.314;2023-02-28T07:16:31;13.15;;;10.27;;
20318;SDS011;10317;47.254;11.314;2023-02-28T07:18:58;12.52;;;8.40;;
20318;SDS011;10317;47.254;11.314;2023-02-28T07:21:23;11.38;;;8.63;;
20318;SDS011;10317;47.254;11.314;2023-02-28T07:23:49;16.67;;;9.02;;
20318;SDS011;10317;47.254;11.314;2023-02-28T07:26:17;13.20;;;7.93;;
20318;SDS011;10317;47.254;11.314;2023-02-28T07:28:45;8.50;;;7.47;;
20318;SDS011;10317;47.254;11.314;2023-02-28T07:31:13;11.38;;;8.63;;
20318;SDS011;10317;47.254;11.314;2023-02-28T07:33:39;12.50;;;8.77;;
20318;SDS011;10317;47.254;11.314;2023-02-28T07:36:06;10.73;;;8.25;;
20318;SDS011;10317;47.254;11.314;2023-02-28T07:38:34;12.77;;;8.65;;
20318;SDS011;10317;47.254;11.314;2023-02-28T07:41:02;12.93;;;9.60;;
20318;SDS011;10317;47.254;11.314;2023-02-28T07:43:31;11.80;;;9.25;;
20318;SDS011;10317;47.254;11.314;2023-02-28T07:46:05;13.20;;;9.05;;
20318;SDS011;10317;47.254;11.314;2023-02-28T07:48:32;14.15;;;9.95;;
20318;SDS011;10317;47.254;11.314;2023-02-28T07:50:58;13.18;;;9.32;;
20318;SDS011;10317;47.254;11.314;2023-02-28T07:53:24;11.50;;;8.98;;
20318;SDS011;10317;47.254;11.314;2023-02-28T07:55:50;11.57;;;8.98;;
20318;SDS011;10317;47.254;11.314;2023-02-28T07:58:16;13.32;;;10.18;;
20318;SDS011;10317;47.254;11.314;2023-02-28T08:00:41;13.23;;;9.80;;
20318;SDS011;10317;47.254;11.314;2023-02-28T08:03:10;13.10;;;9.40;;
20318;SDS011;10317;47.254;11.314;2023-02-28T08:05:40;14.27;;;9.52;;
20318;SDS011;10317;47.254;11.314;2023-02-28T08:08:06;15.15;;;10.20;;
20318;SDS011;10317;47.254;11.314;2023-02-28T08:10:33;10.88;;;8.75;;
20318;SDS011;10317;47.254;11.314;2023-02-28T08:12:59;12.07;;;9.65;;
20318;SDS011;10317;47.254;11.314;2023-02-28T08:15:25;13.43;;;10.18;;
20318;SDS011;10317;47.254;11.314;2023-02-28T08:17:50;12.07;;;9.25;;
20318;SDS011;10317;47.254;11.314;2023-02-28T08:20:16;13.60;;;10.07;;
20318;SDS011;10317;47.254;11.314;2023-02-28T08:22:42;13.05;;;10.15;;
20318;SDS011;10317;47.254;11.314;2023-02-28T08:25:08;9.85;;;8.43;;
20318;SDS011;10317;47.254;11.314;2023-02-28T08:27:34;13.23;;;9.85;;
20318;SDS011;10317;47.254;11.314;2023-02-28T08:30:00;13.15;;;8.35;;
20318;SDS011;10317;47.254;11.314;2023-02-28T08:32:26;12.75;;;9.57;;
20318;SDS011;10317;47.254;11.314;2023-02-28T08:34:52;13.57;;;9.50;;
20318;SDS011;10317;47.254;11.314;2023-02-28T08:37:17;9.70;;;8.68;;
20318;SDS011;10317;47.254;11.314;2023-02-28T08:39:43;12.95;;;9.70;;
20318;SDS011;10317;47.254;11.314;2023-02-28T08:42:09;12.77;;;9.57;;
20318;SDS011;10317;47.254;11.314;2023-02-28T08:44:34;11.82;;;8.95;;
20318;SDS011;10317;47.254;11.314;2023-02-28T08:47:00;12.27;;;10.05;;
20318;SDS011;10317;47.254;11.314;2023-02-28T08:49:26;13.15;;;10.23;;
20318;SDS011;10317;47.254;11.314;2023-02-28T08:51:51;15.65;;;10.10;;
20318;SDS011;10317;47.254;11.314;2023-02-28T08:54:17;16.20;;;9.93;;
20318;SDS011;10317;47.254;11.314;2023-02-28T08:56:44;11.98;;;9.77;;
20318;SDS011;10317;47.254;11.314;2023-02-28T08:59:14;13.02;;;10.35;;
20318;SDS011;10317;47.254;11.314;2023-02-28T09:01:40;12.93;;;10.82;;
20318;SDS011;10317;47.254;11.314;2023-02-28T09:04:09;15.20;;;11.18;;
20318;SDS011;10317;47.254;11.314;2023-02-28T09:06:36;17.70;;;12.68;;
20318;SDS011;10317;47.254;11.314;2023-02-28T09:09:02;18.35;;;13.13;;
20318;SDS011;10317;47.254;11.314;2023-02-28T09:11:31;15.30;;;12.95;;
20318;SDS011;10317;47.254;11.314;2023-02-28T09:13:57;15.05;;;11.88;;
20318;SDS011;10317;47.254;11.314;2023-02-28T09:16:24;17.98;;;12.50;;
20318;SDS011;10317;47.254;11.314;2023-02-28T09:18:50;15.25;;;11.48;;
20318;SDS011;10317;47.254;11.314;2023-02-28T09:21:16;18.05;;;11.77;;
20318;SDS011;10317;47.254;11.314;2023-02-28T09:23:43;13.60;;;12.27;;
20318;SDS011;10317;47.254;11.314;2023-02-28T09:26:28;14.43;;;11.02;;
20318;SDS011;10317;47.254;11.314;2023-02-28T09:28:54;16.83;;;12.60;;
20318;SDS011;10317;47.254;11.314;2023-02-28T09:31:21;15.32;;;12.75;;
20318;SDS011;10317;47.254;11.314;2023-02-28T09:33:54;13.77;;;12.15;;
20318;SDS011;10317;47.254;11.314;2023-02-28T09:36:21;15.98;;;11.93;;
20318;SDS011;10317;47.254;11.314;2023-02-28T09:38:47;17.98;;;12.27;;
20318;SDS011;10317;47.254;11.314;2023-02-28T09:41:17;15.13;;;11.55;;
20318;SDS011;10317;47.254;11.314;2023-02-28T09:43:44;16.20;;;12.05;;
20318;SDS011;10317;47.254;11.314;2023-02-28T09:48:44;17.80;;;12.25;;
20318;SDS011;10317;47.254;11.314;2023-02-28T09:54:05;16.77;;;12.27;;
20318;SDS011;10317;47.254;11.314;2023-02-28T09:56:40;17.17;;;12.57;;
20318;SDS011;10317;47.254;11.314;2023-02-28T09:59:18;12.65;;;11.07;;
20318;SDS011;10317;47.254;11.314;2023-02-28T10:02:13;17.30;;;12.43;;
20318;SDS011;10317;47.254;11.314;2023-02-28T10:05:05;16.63;;;11.43;;
20318;SDS011;10317;47.254;11.314;2023-02-28T10:07:48;16.45;;;11.52;;
20318;SDS011;10317;47.254;11.314;2023-02-28T10:10:21;13.05;;;11.23;;
20318;SDS011;10317;47.254;11.314;2023-02-28T10:13:51;14.05;;;12.23;;
20318;SDS011;10317;47.254;11.314;2023-02-28T10:16:05;19.10;;;11.68;;
20318;SDS011;10317;47.254;11.314;2023-02-28T10:21:26;12.77;;;10.15;;
20318;SDS011;10317;47.254;11.314;2023-02-28T10:24:05;17.38;;;13.05;;
20318;SDS011;10317;47.254;11.314;2023-02-28T10:26:52;15.65;;;11.70;;
20318;SDS011;10317;47.254;11.314;2023-02-28T10:29:24;19.33;;;13.77;;
20318;SDS011;10317;47.254;11.314;2023-02-28T10:31:51;16.85;;;12.02;;
20318;SDS011;10317;47.254;11.314;2023-02-28T10:34:17;15.55;;;11.75;;
20318;SDS011;10317;47.254;11.314;2023-02-28T10:36:42;17.58;;;12.82;;
20318;SDS011;10317;47.254;11.314;2023-02-28T10:42:18;18.58;;;12.52;;
20318;SDS011;10317;47.254;11.314;2023-02-28T10:44:46;18.63;;;12.25;;
20318;SDS011;10317;47.254;11.314;2023-02-28T10:47:14;17.15;;;12.45;;
20318;SDS011;10317;47.254;11.314;2023-02-28T10:49:46;12.68;;;11.07;;
20318;SDS011;10317;47.254;11.314;2023-02-28T10:52:39;13.60;;;11.02;;
20318;SDS011;10317;47.254;11.314;2023-02-28T10:55:22;15.27;;;12.63;;
20318;SDS011;10317;47.254;11.314;2023-02-28T10:57:53;16.67;;;12.00;;
20318;SDS011;10317;47.254;11.314;2023-02-28T11:00:23;15.05;;;11.85;;
20318;SDS011;10317;47.254;11.314;2023-02-28T11:02:52;13.30;;;11.77;;
20318;SDS011;10317;47.254;11.314;2023-02-28T11:05:28;13.88;;;10.88;;
20318;SDS011;10317;47.254;11.314;2023-02-28T11:08:10;16.25;;;10.80;;
20318;SDS011;10317;47.254;11.314;2023-02-28T11:10:46;11.68;;;9.80;;
20318;SDS011;10317;47.254;11.314;2023-02-28T11:13:17;16.42;;;11.32;;
20318;SDS011;10317;47.254;11.314;2023-02-28T11:15:49;16.10;;;11.85;;
20318;SDS011;10317;47.254;11.314;2023-02-28T11:21:09;13.50;;;10.60;;
20318;SDS011;10317;47.254;11.314;2023-02-28T11:23:43;15.88;;;11.15;;
20318;SDS011;10317;47.254;11.314;2023-02-28T11:26:09;13.10;;;10.75;;
20318;SDS011;10317;47.254;11.314;2023-02-28T11:28:37;16.02;;;12.15;;
20318;SDS011;10317;47.254;11.314;2023-02-28T11:33:46;14.23;;;11.20;;
20318;SDS011;10317;47.254;11.314;2023-02-28T11:36:20;15.57;;;11.80;;
20318;SDS011;10317;47.254;11.314;2023-02-28T11:38:55;17.27;;;11.20;;
20318;SDS011;10317;47.254;11.314;2023-02-28T11:46:49;15.40;;;12.52;;
20318;SDS011;10317;47.254;11.314;2023-02-28T11:57:52;16.70;;;11.80;;
20318;SDS011;10317;47.254;11.314;2023-02-28T12:06:13;20.45;;;13.75;;
20318;SDS011;10317;47.254;11.314;2023-02-28T12:08:49;16.58;;;12.68;;
20318;SDS011;10317;47.254;11.314;2023-02-28T12:11:37;18.98;;;12.75;;
20318;SDS011;10317;47.254;11.314;2023-02-28T12:17:15;18.05;;;14.10;;
20318;SDS011;10317;47.254;11.314;2023-02-28T12:20:04;15.82;;;12.50;;
20318;SDS011;10317;47.254;11.314;2023-02-28T12:27:41;15.57;;;12.63;;
20318;SDS011;10317;47.254;11.314;2023-02-28T12:30:32;17.92;;;13.05;;
20318;SDS011;10317;47.254;11.314;2023-02-28T12:38:40;18.15;;;12.75;;
20318;SDS011;10317;47.254;11.314;2023-02-28T12:41:11;19.30;;;13.00;;
20318;SDS011;10317;47.254;11.314;2023-02-28T12:44:03;16.70;;;12.32;;
20318;SDS011;10317;47.254;11.314;2023-02-28T12:46:45;16.52;;;13.02;;
20318;SDS011;10317;47.254;11.314;2023-02-28T12:49:16;15.60;;;12.18;;
20318;SDS011;10317;47.254;11.314;2023-02-28T12:51:49;15.57;;;11.50;;
20318;SDS011;10317;47.254;11.314;2023-02-28T12:54:32;16.08;;;11.27;;
20318;SDS011;10317;47.254;11.314;2023-02-28T12:59:48;14.13;;;11.77;;
20318;SDS011;10317;47.254;11.314;2023-02-28T13:10:46;11.70;;;10.00;;
20318;SDS011;10317;47.254;11.314;2023-02-28T13:13:23;13.55;;;11.38;;
20318;SDS011;10317;47.254;11.314;2023-02-28T13:18:39;13.57;;;10.00;;
20318;SDS011;10317;47.254;11.314;2023-02-28T13:21:10;9.88;;;8.50;;
20318;SDS011;10317;47.254;11.314;2023-02-28T13:29:20;12.55;;;9.85;;
20318;SDS011;10317;47.254;11.314;2023-02-28T13:34:33;14.38;;;9.05;;
20318;SDS011;10317;47.254;11.314;2023-02-28T13:39:46;10.68;;;9.57;;
20318;SDS011;10317;47.254;11.314;2023-02-28T13:45:30;11.45;;;9.82;;
20318;SDS011;10317;47.254;11.314;2023-02-28T14:06:56;13.25;;;10.98;;
20318;SDS011;10317;47.254;11.314;2023-02-28T14:09:28;14.05;;;10.82;;
20318;SDS011;10317;47.254;11.314;2023-02-28T14:11:57;14.43;;;11.73;;
20318;SDS011;10317;47.254;11.314;2023-02-28T14:17:12;13.15;;;10.23;;
20318;SDS011;10317;47.254;11.314;2023-02-28T14:19:41;13.23;;;10.98;;
20318;SDS011;10317;47.254;11.314;2023-02-28T14:28:07;13.77;;;10.80;;
20318;SDS011;10317;47.254;11.314;2023-02-28T14:31:01;12.88;;;10.18;;
20318;SDS011;10317;47.254;11.314;2023-02-28T14:39:07;15.00;;;11.85;;
20318;SDS011;10317;47.254;11.314;2023-02-28T14:41:40;13.68;;;11.13;;
20318;SDS011;10317;47.254;11.314;2023-02-28T14:44:15;14.20;;;10.48;;
20318;SDS011;10317;47.254;11.314;2023-02-28T14:46:55;15.45;;;11.27;;
20318;SDS011;10317;47.254;11.314;2023-02-28T14:49:34;15.55;;;10.73;;
20318;SDS011;10317;47.254;11.314;2023-02-28T14:52:07;15.15;;;10.90;;
20318;SDS011;10317;47.254;11.314;2023-02-28T14:54:39;13.27;;;10.00;;
20318;SDS011;10317;47.254;11.314;2023-02-28T14:57:06;12.57;;;10.80;;
20318;SDS011;10317;47.254;11.314;2023-02-28T14:59:45;13.43;;;10.85;;
20318;SDS011;10317;47.254;11.314;2023-02-28T15:02:21;14.88;;;11.93;;
20318;SDS011;10317;47.254;11.314;2023-02-28T15:07:35;11.98;;;9.85;;
20318;SDS011;10317;47.254;11.314;2023-02-28T15:10:13;12.32;;;10.13;;
20318;SDS011;10317;47.254;11.314;2023-02-28T15:12:54;14.68;;;10.77;;
20318;SDS011;10317;47.254;11.314;2023-02-28T15:15:39;12.95;;;10.25;;
20318;SDS011;10317;47.254;11.314;2023-02-28T15:21:22;11.93;;;10.57;;
20318;SDS011;10317;47.254;11.314;2023-02-28T15:23:55;15.93;;;11.43;;
20318;SDS011;10317;47.254;11.314;2023-02-28T15:26:32;14.98;;;11.02;;
20318;SDS011;10317;47.254;11.314;2023-02-28T15:29:03;17.63;;;11.43;;
20318;SDS011;10317;47.254;11.314;2023-02-28T15:31:32;14.82;;;11.07;;
20318;SDS011;10317;47.254;11.314;2023-02-28T15:34:04;12.38;;;10.15;;
20318;SDS011;10317;47.254;11.314;2023-02-28T15:36:34;13.40;;;9.00;;
20318;SDS011;10317;47.254;11.314;2023-02-28T15:39:02;16.05;;;9.85;;
20318;SDS011;10317;47.254;11.314;2023-02-28T15:41:43;13.07;;;9.48;;
20318;SDS011;10317;47.254;11.314;2023-02-28T15:46:59;13.13;;;9.65;;
20318;SDS011;10317;47.254;11.314;2023-02-28T15:49:26;10.50;;;9.15;;
20318;SDS011;10317;47.254;11.314;2023-02-28T15:51:53;13.75;;;9.95;;
20318;SDS011;10317;47.254;11.314;2023-02-28T15:54:24;10.80;;;8.63;;
20318;SDS011;10317;47.254;11.314;2023-02-28T15:56:54;11.57;;;9.05;;
20318;SDS011;10317;47.254;11.314;2023-02-28T15:59:31;15.45;;;11.02;;
20318;SDS011;10317;47.254;11.314;2023-02-28T16:04:35;12.00;;;9.15;;
20318;SDS011;10317;47.254;11.314;2023-02-28T16:07:03;13.00;;;9.85;;
20318;SDS011;10317;47.254;11.314;2023-02-28T16:09:30;11.98;;;9.20;;
20318;SDS011;10317;47.254;11.314;2023-02-28T16:11:59;14.00;;;9.82;;
20318;SDS011;10317;47.254;11.314;2023-02-28T16:14:27;12.00;;;8.88;;
20318;SDS011;10317;47.254;11.314;2023-02-28T16:17:02;15.73;;;10.10;;
20318;SDS011;10317;47.254;11.314;2023-02-28T16:19:29;10.98;;;9.30;;
20318;SDS011;10317;47.254;11.314;2023-02-28T16:21:56;16.75;;;10.75;;
20318;SDS011;10317;47.254;11.314;2023-02-28T16:24:22;12.85;;;10.80;;
20318;SDS011;10317;47.254;11.314;2023-02-28T16:26:48;12.45;;;9.70;;
20318;SDS011;10317;47.254;11.314;2023-02-28T16:29:23;15.60;;;10.68;;
20318;SDS011;10317;47.254;11.314;2023-02-28T16:31:52;17.08;;;11.57;;
20318;SDS011;10317;47.254;11.314;2023-02-28T16:34:18;20.15;;;14.40;;
20318;SDS011;10317;47.254;11.314;2023-02-28T16:36:46;20.50;;;13.13;;
20318;SDS011;10317;47.254;11.314;2023-02-28T16:39:12;20.63;;;12.80;;
20318;SDS011;10317;47.254;11.314;2023-02-28T16:41:38;19.77;;;13.02;;
20318;SDS011;10317;47.254;11.314;2023-02-28T16:44:09;18.45;;;12.10;;
20318;SDS011;10317;47.254;11.314;2023-02-28T16:46:40;16.88;;;12.32;;
20318;SDS011;10317;47.254;11.314;2023-02-28T16:49:10;18.65;;;12.70;;
20318;SDS011;10317;47.254;11.314;2023-02-28T16:51:46;15.68;;;12.55;;
20318;SDS011;10317;47.254;11.314;2023-02-28T16:54:12;15.32;;;11.95;;
20318;SDS011;10317;47.254;11.314;2023-02-28T16:56:39;18.58;;;13.23;;
20318;SDS011;10317;47.254;11.314;2023-02-28T16:59:08;19.60;;;14.20;;
20318;SDS011;10317;47.254;11.314;2023-02-28T17:01:35;19.30;;;13.07;;
20318;SDS011;10317;47.254;11.314;2023-02-28T17:04:01;19.33;;;12.73;;